Main page
METAR-TAF:

METAR-TAF

Airports :

Goshen Municipal Airport

Goshen, Indiana, United States

latitude: 41-31-34N, longitude: 085-47-12W, elevation: 827 ft

Current weather observation

The report was made 1 hour and 8 minutes ago, at 08:53 UTC
Calm wind
Temperature 36°F
Humidity 75%
Pressure 30.11 in. Hg
Visibility: 10 miles
Clear sky

METAR: KGSH 220853Z AUTO 00000KT 10SM CLR 02/M02 A3011 RMK AO2 SLP201 T00221022 55001

Time: 06:01 (10:01 UTC)


TAF: missing

Weather observations and forecasts of more than 4000 airports (METAR and TAF reports).

The available stations are represented by yellow and red dots on the map.

Hover mouse over dot to see the name of the station.

Then click to see weather observations and forecasts.

To change the map : click on the green buttons with a black cross to zoom in, on the green button with a dash to zoom out, or on the green arrows for adjacent maps.


METAR-TAF: